A- A+ FrançaisEnglishEspañol中国

Services sur Internet Soldes sur Internet Des idées de cadeaux Météo Météo aéro

La météo à : Autours de vous Biscarrosse-Parentis Tarbes-Lourdes-PyrénéesSt-Pierre-D'oleronGrenoble-Le-Versoud

La météo aéronautique pour les pilotes, la préparation du vol avec les METAR (METeorological Aerodrome Report, message d'observation des conditions météorologiques pour l'aviation) et Les TAF (Terminal Aerodrome Forecast : message de prévision à court terme des conditions météorologiques pour l'aviation). Et les autres ressources comme les VAC (Visual Approch Chart) et les NOTAM (Notice To Airman) pour préprer les vols.

Aéroport Sydney (Canada) / OACI CYQY / IATA YQY

L'altitude de l'aéroport Sydney est de 62 mètres. Il est situé à proximité de Sydney (Canada). La météo générale à 5 jours est disponible pour Dominion situé à 6.7 km.

METAR de l'aéroport Sydney - CYQY

CYQY 211200Z 04017G23KT 6SM -RA BR OVC008 02/02 A2974 RMK NS8 SLP076

Décodage du METAR de l'aéroport Sydney (CA)

METAR émis par CYQY le jeudi 21 novembre 2019 à 12:00 heure TU, il y a 7 minutes.

La visibilité est de 9.7 km = 6 sm.

La température est de 2°C et le point rosée est de 2°C. Ce qui correspond à 100% d'humidité relative.

Le QNH est de 1007 hPa = 29.74 inHg

Vent de 17 kt = 31 km/h avec des rafales à 23 kt = 43 km/h, orienté à 40°.

Nuages : Couverture nuageuse soudée à 800 ft = 240 mètres.

-RA BR

RMK NS8 SLP076

TAF de l'aéroport Sydney - CYQY

CYQY 211138Z 2112/2124 05017G27KT 6SM -DZ BR FEW005 OVC010 TEMPO 2112/2124 2SM -RA BR OVC005 BECMG 2112/2114 02020G30KT RMK NXT FCST BY 211800Z

CYQY 211138Z 2112/2124 05017G27KT 6SM faible DZ brume quelques nuages à 005 couverture nuageuse soudée à 010 temporairement 2112/2124 2SM faible RA brume couverture nuageuse soudée à 005 devenant 2112/2114 02020G30KT remarques NXT trombe ST BY 211800Z

Aéroport à proximité de Sydney

Météo générale à 5 jours à Dominion (6.7 km)Aéroport Port Hawkesbury (117 km)Aéroport Iles De La Madeleine (193 km)Aéroport Trenton (208 km)Aéroport Charlottetown (237 km)Aéroport Stephenville (288 km)Aéroport Summerside (292 km)

Vue aérienne de l'aéroport Sydney

NOTAM de l'aéroport Sydney

Les NOTAM sont fournis sans aucune garantie de leur actualité. Le pilote est le seul responsable de la vérification de sa validité avant de l'utiliser opérationnellement pour préparer un vol ou l'utiliser lors de sa navigation.

Pas de NOTAM

Sources des données